Airfield :
LOGIN :

Register | Disclaimer

   EN    FR    IT 

 










Legend :    VFR   Marginal VFR   IFR   Intensive IFR   Very Intensive IFR
Visi :
Ceiling :
>= 8 km
>= 3000ft
5 to 8 km
1000 to 3000 ft
1500m to 5 km
500 to 1000 ft
800 to 1500m
200 to 500 ft
< 800m
< 200 ft
Symbols :   Thunderstorms  Fog  Heavy snow  Heavy precipitations  Wind > 20 kt
SIGMETs :     Misc.  Thunderstorms  Icing  Turbulence  Mountain Waves  Volcanic Ashes






- Airport Elevation : 791 ft
- IATA code : KRK


EPKK - Krakow-Balice

CURRENT METAR :
  • 181330Z 27006KT 240V320 9999 FEW032 SCT046 08/03 Q1010

EXPIRED METARs :
  • 181300Z 35010KT 9999 -SHRA FEW030TCU BKN046 08/01 Q1010
  • 181230Z 26006KT 180V320 9999 FEW030TCU BKN046 08/01 Q1010
  • 181200Z 28011KT 9999 -SHRA SCT026CB BKN043 07/02 Q1010
  • 181130Z VRB02KT 9999 FEW023TCU BKN050 07/02 Q1009
  • 181100Z 34007KT 310V010 9999 -SHRA SCT023CB BKN040 06/01 Q1009
  • 181030Z 01007KT 9999 FEW026TCU BKN050 08/02 Q1009
  • 181000Z VRB06KT 9999 -SHRA SCT023CB BKN040 06/01 Q1009
  • 180930Z 26006KT 220V320 9999 FEW030TCU SCT050 07/01 Q1009
  • 180900Z 23008KT 210V270 9999 FEW017TCU SCT040 06/03 Q1009

TAF TAF EPKK
Valid from the 18 at 12:00 until the 19 at 12:00 UTC


181130Z 1812/1912 33008KT 9999 BKN040
TEMPO 1812/1821 32015G25KT SHRA BKN025CB
PROB40
TEMPO 1900/1905 3000 BR
BECMG 1905/1908 25010KT
TEMPO 1909/1912 27015G25KT SHRA BKN025CB



MET'MAP, your aeronautical weather chart ! - Copyright ORBIFLY December 2007 - Disclaimer

ORBIFLY MET'MAP TEAM :

Programming & Development : Alexandra Zaïnal
Original concept : Baudouin d'Aumeries
Technical & hardware support : Manuel Goepfert
Assistance : Marc-Olivier Méhu




SOURCES & CREDITS :

   NOAA